createdAt,value
2019-03-06T02:09:38.169Z,1.30
2019-03-06T02:12:06.987Z,1.27
2019-03-06T02:14:40.039Z,1.33
2019-03-06T02:41:22.004Z,1.13
2019-03-06T02:44:02.414Z,1.07
2019-03-06T02:52:39.546Z,1.37
2019-03-06T02:54:42.712Z,1.20
2019-03-06T02:57:28.015Z,1.30
2019-03-06T04:37:35.850Z,1.10
2019-03-06T04:55:31.829Z,1.17
2019-03-06T05:00:43.475Z,1.13
2019-03-06T06:31:23.740Z,1.10
2019-03-06T06:33:52.242Z,1.20
2019-03-06T06:36:26.019Z,0.90
2019-03-06T06:38:54.126Z,0.93
2019-03-06T06:41:24.264Z,0.90
2019-03-06T06:43:55.004Z,0.97
2019-03-06T06:46:25.993Z,0.80
2019-03-06T06:48:54.704Z,1.00
2019-03-06T06:57:13.527Z,0.90
2019-03-06T07:00:04.994Z,1.20
2019-03-06T07:41:21.257Z,1.20
2019-03-06T07:46:32.004Z,0.83
2019-03-06T07:49:11.199Z,0.90
2019-03-06T08:14:44.192Z,0.87
2019-03-06T08:17:28.157Z,1.20
2019-03-06T08:23:19.620Z,0.90
2019-03-06T08:25:44.465Z,1.13
2019-03-06T08:28:29.523Z,0.90
2019-03-06T08:31:10.374Z,0.90
2019-03-06T08:36:32.218Z,0.70
2019-03-06T08:41:51.232Z,1.00
2019-03-06T08:44:21.475Z,0.87
2019-03-06T08:46:56.989Z,1.00
2019-03-06T08:58:38.505Z,1.17
2019-03-06T09:01:38.775Z,1.43
2019-03-06T09:04:08.818Z,1.00
2019-03-06T09:06:41.781Z,1.13
2019-03-06T09:09:13.452Z,1.10
2019-03-06T09:11:44.386Z,1.23
2019-03-06T09:14:25.760Z,1.40
2019-03-06T09:16:58.737Z,1.30
2019-03-06T09:19:37.876Z,1.40
2019-03-06T09:22:07.953Z,1.40
2019-03-06T09:24:38.248Z,1.10
2019-03-06T09:27:12.581Z,1.20
2019-03-06T09:30:00.429Z,1.40
2019-03-06T09:32:45.925Z,1.23
2019-03-06T09:35:22.796Z,1.13
2019-03-06T09:38:11.105Z,1.17
2019-03-06T09:40:41.025Z,1.20
2019-03-06T09:43:29.210Z,0.97
2019-03-06T09:46:13.089Z,1.60
2019-03-06T09:48:46.212Z,1.20
2019-03-06T09:51:32.589Z,1.20
2019-03-06T09:54:11.156Z,1.10
2019-03-06T09:56:56.269Z,1.30
2019-03-06T09:59:26.586Z,1.10
2019-03-06T10:02:11.730Z,1.10
2019-03-06T10:04:42.268Z,1.17
2019-03-06T10:07:17.357Z,1.00
2019-03-06T10:09:59.062Z,0.80
2019-03-06T10:12:28.284Z,1.20
2019-03-06T10:15:01.309Z,1.00
2019-03-06T10:17:38.039Z,1.20
2019-03-06T10:20:11.339Z,1.00
2019-03-06T10:22:40.020Z,1.00
2019-03-06T10:25:09.364Z,0.83
2019-03-06T10:27:38.033Z,1.17
2019-03-06T10:30:15.964Z,1.07
2019-03-06T10:32:49.489Z,1.00
2019-03-06T10:35:17.925Z,0.77
2019-03-06T10:37:49.969Z,1.03
2019-03-06T10:40:18.815Z,1.23
2019-03-06T10:42:50.226Z,1.10
2019-03-06T10:45:21.767Z,0.90
2019-03-06T10:47:50.625Z,1.13
2019-03-06T10:50:28.011Z,1.07
2019-03-06T10:52:51.354Z,0.90
2019-03-06T10:55:20.136Z,1.27
2019-03-06T10:57:49.310Z,1.10
2019-03-06T11:00:21.776Z,1.23
2019-03-06T11:02:50.472Z,1.30
2019-03-06T11:05:24.132Z,1.10
2019-03-06T11:07:54.856Z,1.00
2019-03-06T11:10:25.151Z,0.90
2019-03-06T11:12:55.266Z,0.83
2019-03-06T11:15:23.706Z,0.90
2019-03-06T11:17:52.434Z,1.17
2019-03-06T11:20:26.853Z,0.87
2019-03-06T11:22:56.007Z,1.00
2019-03-06T11:25:24.612Z,0.90
2019-03-06T11:27:54.054Z,0.83
2019-03-06T11:30:34.353Z,1.00
2019-03-06T11:33:02.766Z,1.40
2019-03-06T11:35:31.204Z,1.07
2019-03-06T11:37:59.612Z,1.27
2019-03-06T11:40:28.149Z,1.00
2019-03-06T11:42:56.558Z,1.00
2019-03-06T11:45:29.075Z,0.90
2019-03-06T11:47:59.544Z,0.90
2019-03-06T11:50:30.783Z,0.80
2019-03-06T11:52:59.671Z,1.00
2019-03-06T11:55:28.169Z,0.90
2019-03-06T11:57:56.574Z,1.00
2019-03-06T12:00:39.058Z,0.83
2019-03-06T12:03:07.604Z,0.93
2019-03-06T12:05:37.412Z,1.00
2019-03-06T12:08:12.036Z,0.77
2019-03-06T12:10:40.169Z,0.90
2019-03-06T12:13:16.712Z,0.87
2019-03-06T12:15:47.189Z,0.87
2019-03-06T12:18:17.856Z,0.80
2019-03-06T12:20:48.926Z,0.80
2019-03-06T12:23:21.876Z,0.93
2019-03-06T12:25:53.018Z,0.90
2019-03-06T12:28:21.421Z,0.90
2019-03-06T12:30:49.853Z,0.87
2019-03-06T12:33:23.579Z,1.00
2019-03-06T12:35:52.012Z,0.80
2019-03-06T12:38:20.713Z,0.80
2019-03-06T12:40:49.144Z,0.83
2019-03-06T12:43:17.554Z,0.80
2019-03-06T12:46:06.144Z,0.80
2019-03-06T12:48:36.110Z,0.77
2019-03-06T12:51:07.887Z,0.90
2019-03-06T12:53:40.510Z,0.80
2019-03-06T12:56:11.643Z,0.73
2019-03-06T12:58:42.852Z,0.93
2019-03-06T13:01:11.284Z,0.73
2019-03-06T13:03:44.612Z,0.80
2019-03-06T13:06:13.045Z,0.80
2019-03-06T13:08:50.445Z,1.33
2019-03-06T13:11:14.510Z,0.80
2019-03-06T13:13:44.105Z,0.70
2019-03-06T13:16:12.575Z,0.83
2019-03-06T13:18:45.208Z,0.70
2019-03-06T13:21:16.077Z,0.80
2019-03-06T13:23:47.496Z,0.90
2019-03-06T13:26:15.939Z,0.90
2019-03-06T13:28:46.338Z,1.00
2019-03-06T13:31:17.189Z,0.90
2019-03-06T13:33:55.755Z,0.90
2019-03-06T13:36:24.454Z,0.80
2019-03-06T13:38:56.371Z,0.70
2019-03-06T13:41:23.509Z,0.80
2019-03-06T13:43:54.633Z,0.90
2019-03-06T13:46:23.248Z,0.87
2019-03-06T13:48:52.701Z,0.67
2019-03-06T13:51:21.135Z,0.60
2019-03-06T13:53:51.114Z,0.73
2019-03-06T13:56:19.808Z,0.60
2019-03-06T13:58:48.221Z,0.90
2019-03-06T14:01:16.919Z,0.80
2019-03-06T14:03:46.995Z,1.10
2019-03-06T14:06:15.654Z,0.87
2019-03-06T14:08:44.906Z,0.70
2019-03-06T14:11:13.605Z,0.83
2019-03-06T14:13:43.678Z,0.80
2019-03-06T14:16:13.712Z,0.90
2019-03-06T14:18:42.145Z,0.60
2019-03-06T14:21:10.563Z,1.00
2019-03-06T14:23:39.816Z,0.80
2019-03-06T14:26:09.987Z,0.70
2019-03-06T14:28:38.414Z,0.73
2019-03-06T14:31:08.150Z,0.77
2019-03-06T14:33:36.564Z,0.80
2019-03-06T14:36:04.977Z,0.87
2019-03-06T14:38:35.040Z,0.90
2019-03-06T14:41:03.446Z,0.73
2019-03-06T14:43:33.507Z,0.60
2019-03-06T14:46:03.388Z,0.80
2019-03-06T14:48:35.068Z,0.90
2019-03-06T14:51:06.026Z,0.60
2019-03-06T14:53:37.459Z,0.70
2019-03-06T14:56:05.867Z,0.77
2019-03-06T14:58:35.923Z,0.80
2019-03-06T15:01:05.241Z,0.70
2019-03-06T15:03:35.189Z,0.60
2019-03-06T15:06:04.152Z,1.03
2019-03-06T15:08:32.584Z,1.40
2019-03-06T15:11:01.000Z,0.77
2019-03-06T15:13:29.439Z,0.77
2019-03-06T15:15:59.537Z,0.80
2019-03-06T15:18:27.957Z,0.73
2019-03-06T15:20:58.413Z,0.80
2019-03-06T15:23:26.846Z,0.80
2019-03-06T15:25:55.274Z,0.60
2019-03-06T15:28:23.821Z,0.93
2019-03-06T15:30:53.856Z,0.90
2019-03-06T15:33:22.297Z,0.80
2019-03-06T15:35:50.989Z,0.80
2019-03-06T15:38:19.417Z,0.70
2019-03-06T15:40:49.085Z,0.73
2019-03-06T15:43:20.864Z,0.80
2019-03-06T15:45:49.543Z,1.20
2019-03-06T15:48:17.977Z,0.80
2019-03-06T15:50:46.384Z,1.30
2019-03-06T15:53:24.101Z,0.70
2019-03-06T15:55:46.658Z,1.00
2019-03-06T15:58:15.465Z,0.57
2019-03-06T16:00:46.552Z,0.73
2019-03-06T16:03:16.593Z,0.90
2019-03-06T16:05:45.020Z,0.90
2019-03-06T16:08:13.820Z,0.60
2019-03-06T16:10:43.489Z,0.50
2019-03-06T16:13:11.923Z,1.10
2019-03-06T16:15:40.339Z,0.90
2019-03-06T16:18:09.742Z,0.90
2019-03-06T16:20:38.147Z,0.60
2019-03-06T16:23:06.817Z,0.90
2019-03-06T16:25:38.101Z,1.10
2019-03-06T16:28:09.067Z,1.00
2019-03-06T16:30:37.510Z,0.90
2019-03-06T16:33:05.919Z,0.70
2019-03-06T16:35:34.352Z,1.10
2019-03-06T16:38:02.833Z,0.70
2019-03-06T16:40:31.470Z,0.60
2019-03-06T16:43:00.568Z,0.73
2019-03-06T16:45:29.440Z,0.53
2019-03-06T16:48:00.463Z,1.00
2019-03-06T16:50:28.916Z,0.93
2019-03-06T16:52:58.980Z,0.80
2019-03-06T16:55:27.759Z,1.00
2019-03-06T16:58:00.916Z,0.73
2019-03-06T17:00:41.098Z,0.90
2019-03-06T17:03:17.205Z,0.73
2019-03-06T17:05:49.157Z,0.80
2019-03-06T17:08:19.409Z,0.80
2019-03-06T17:10:49.241Z,0.73
2019-03-06T17:13:19.164Z,0.60
2019-03-06T17:15:48.161Z,0.90
2019-03-06T17:18:16.672Z,0.70
2019-03-06T17:20:46.389Z,0.87
2019-03-06T17:23:16.344Z,0.60
2019-03-06T17:25:44.780Z,0.50
2019-03-06T17:28:15.804Z,0.67
2019-03-06T17:30:46.326Z,0.67
2019-03-06T17:33:17.031Z,0.80
2019-03-06T17:35:45.466Z,0.60
2019-03-06T17:38:19.563Z,0.70
2019-03-06T17:40:47.986Z,0.70
2019-03-06T17:43:16.401Z,0.80
2019-03-06T17:45:47.144Z,0.80
2019-03-06T17:48:16.513Z,0.80
2019-03-06T17:50:44.924Z,0.60
2019-03-06T17:53:16.048Z,0.50
2019-03-06T17:55:44.457Z,0.80
2019-03-06T17:58:12.898Z,0.70
2019-03-06T18:00:48.378Z,0.50
2019-03-06T18:03:20.363Z,0.70
2019-03-06T18:05:48.776Z,0.60
2019-03-06T18:08:18.140Z,0.60
2019-03-06T18:10:48.138Z,0.63
2019-03-06T18:13:17.596Z,0.70
2019-03-06T18:15:46.039Z,0.70
2019-03-06T18:18:14.447Z,0.80
2019-03-06T18:20:42.889Z,1.00
2019-03-06T18:23:11.300Z,0.70
2019-03-06T18:25:39.738Z,0.70
2019-03-06T18:28:08.709Z,0.60
2019-03-06T18:30:40.660Z,0.80
2019-03-06T18:33:10.693Z,0.77
2019-03-06T18:35:40.141Z,0.70
2019-03-06T18:38:08.671Z,0.77
2019-03-06T18:40:37.401Z,0.70
2019-03-06T18:43:06.399Z,0.70
2019-03-06T18:45:36.849Z,0.77
2019-03-06T18:48:05.264Z,0.83
2019-03-06T18:50:36.395Z,0.90
2019-03-06T18:53:06.445Z,0.80
2019-03-06T18:55:34.981Z,0.70
2019-03-06T18:58:03.703Z,0.67
2019-03-06T19:00:33.715Z,0.67
2019-03-06T19:03:02.284Z,0.50
2019-03-06T19:05:30.946Z,0.70
2019-03-06T19:07:59.939Z,0.60
2019-03-06T19:10:28.345Z,0.57
2019-03-06T19:12:56.797Z,0.50
2019-03-06T19:15:28.757Z,0.70
2019-03-06T19:17:57.188Z,0.60
2019-03-06T19:20:25.602Z,0.60
2019-03-06T19:22:54.206Z,0.43
2019-03-06T19:25:22.945Z,0.70
2019-03-06T19:27:51.386Z,0.80
2019-03-06T19:30:22.964Z,0.80
2019-03-06T19:32:53.244Z,0.60
2019-03-06T19:35:24.586Z,0.63
2019-03-06T19:37:54.029Z,0.60
2019-03-06T19:40:25.290Z,0.60
2019-03-06T19:42:54.951Z,0.70
2019-03-06T19:45:25.839Z,0.70
2019-03-06T19:47:54.279Z,0.60
2019-03-06T19:50:26.556Z,0.70
2019-03-06T19:52:55.291Z,0.67
2019-03-06T19:55:23.991Z,0.70
2019-03-06T19:57:57.883Z,0.80
2019-03-06T20:00:29.549Z,0.83
2019-03-06T20:02:59.246Z,0.70
2019-03-06T20:05:36.841Z,0.43
2019-03-06T20:08:07.912Z,0.97
2019-03-06T20:10:37.690Z,0.60
2019-03-06T20:13:06.205Z,1.00
2019-03-06T20:15:34.629Z,0.60
2019-03-06T20:18:07.421Z,0.70
2019-03-06T20:20:37.246Z,0.40
2019-03-06T20:23:05.673Z,0.57
2019-03-06T20:25:37.155Z,0.67
2019-03-06T20:28:05.748Z,0.67
2019-03-06T20:30:34.289Z,0.60
2019-03-06T20:33:02.722Z,0.83
2019-03-06T20:35:31.493Z,0.70
2019-03-06T20:38:01.756Z,0.60
2019-03-06T20:40:30.169Z,0.73
2019-03-06T20:42:59.113Z,0.37
2019-03-06T20:45:27.525Z,0.80
2019-03-06T20:47:55.964Z,0.90
2019-03-06T20:50:25.740Z,0.70
2019-03-06T20:52:54.729Z,0.50
2019-03-06T20:55:23.384Z,0.50
2019-03-06T20:57:52.001Z,0.60
2019-03-06T21:00:23.925Z,0.80
2019-03-06T21:02:52.927Z,0.80
2019-03-06T21:05:21.334Z,1.00
2019-03-06T21:07:51.370Z,0.67
2019-03-06T21:10:22.331Z,0.70
2019-03-06T21:12:52.632Z,0.80
2019-03-06T21:15:23.572Z,0.60
2019-03-06T21:17:55.228Z,0.63
2019-03-06T21:20:24.691Z,0.60
2019-03-06T21:22:53.391Z,0.70
2019-03-06T21:25:22.244Z,0.60
2019-03-06T21:27:51.223Z,0.70
2019-03-06T21:30:27.841Z,0.70
2019-03-06T21:32:56.606Z,0.60
2019-03-06T21:35:26.917Z,0.77
2019-03-06T21:37:58.709Z,0.80
2019-03-06T21:40:35.133Z,0.70
2019-03-06T21:43:04.522Z,0.60
2019-03-06T21:45:34.933Z,0.50
2019-03-06T21:48:04.991Z,0.80
2019-03-06T21:50:34.367Z,0.60
2019-03-06T21:53:03.131Z,0.60
2019-03-06T21:55:32.217Z,0.70
2019-03-06T21:58:03.213Z,0.67
2019-03-06T22:00:37.262Z,0.80
2019-03-06T22:03:09.423Z,0.73
2019-03-06T22:05:39.146Z,0.67
2019-03-06T22:08:07.751Z,0.60
2019-03-06T22:10:37.461Z,0.70
2019-03-06T22:13:07.271Z,0.80
2019-03-06T22:15:39.126Z,0.70
2019-03-06T22:18:07.547Z,0.67
2019-03-06T22:20:37.954Z,0.70
2019-03-06T22:23:08.273Z,0.60
2019-03-06T22:25:39.622Z,0.70
2019-03-06T22:28:10.689Z,0.70
2019-03-06T22:30:40.590Z,0.80
2019-03-06T22:33:11.872Z,0.77
2019-03-06T22:35:43.684Z,0.50
2019-03-06T22:38:12.091Z,0.60
2019-03-06T22:40:44.576Z,0.70
2019-03-06T22:43:16.398Z,0.50
2019-03-06T22:45:46.729Z,0.60
2019-03-06T22:48:15.456Z,0.60
2019-03-06T22:50:45.330Z,0.50
2019-03-06T22:53:17.328Z,0.70
2019-03-06T22:55:45.457Z,0.80
2019-03-06T22:58:13.856Z,0.70
2019-03-06T23:00:48.549Z,0.63
2019-03-06T23:03:18.903Z,0.63
2019-03-06T23:05:50.889Z,0.60
2019-03-06T23:08:20.928Z,0.67
2019-03-06T23:10:50.646Z,0.57
2019-03-06T23:13:22.290Z,0.60
2019-03-06T23:15:52.346Z,0.43
2019-03-06T23:18:20.758Z,0.63
2019-03-06T23:20:52.633Z,0.90
2019-03-06T23:23:22.098Z,0.70
2019-03-06T23:25:51.821Z,0.63
2019-03-06T23:28:22.548Z,0.80
2019-03-06T23:30:56.650Z,0.60
2019-03-06T23:33:25.500Z,0.60
2019-03-06T23:35:57.297Z,0.60
2019-03-06T23:38:28.715Z,0.60
2019-03-06T23:41:01.901Z,0.70
2019-03-06T23:43:33.274Z,0.73
2019-03-06T23:46:03.213Z,0.80
2019-03-06T23:48:33.132Z,0.63
2019-03-06T23:51:11.088Z,0.60
2019-03-06T23:53:50.435Z,0.70
2019-03-06T23:56:21.856Z,0.50
2019-03-06T23:58:53.044Z,0.60
